Terminal Aerodrome Forecast
Issued by NWS

Home | Current Version | Previous Version | Text Only | Print | Product List | Glossary Off
Versions: 1 2 3 4 5 6 7 8 9 10 11 12 13 14 15 16 17 18 19 20 21 22 23 24 25 26 27 28 29

000
FTUS43 KLOT 312022 AAC
TAFMDW
TAF AMD
KMDW 312022Z 3120/0118 12015KT P6SM -SHRA SCT060 BKN120
      TEMPO 3120/3123 29025G42KT 4SM TSRA SCT040CB BKN080
     FM312300 11004KT P6SM VCSH SCT040 BKN080
     FM010200 12004KT P6SM SCT050 BKN080
     FM010900 14007KT P6SM SCT050 BKN100 PROB30 0109/0114 4SM TSRA
      SCT040CB BKN080
     FM011400 17008KT P6SM VCTS SCT040CB BKN080
      TEMPO 0114/0118 4SM TSRA BKN040CB=

USA.gov is the U.S. government's official web portal to all federal, state and local government web resources and services.